createdAt,value
2023-02-08T00:01:24.021Z,-7.20
2023-02-08T00:03:52.455Z,-7.50
2023-02-08T00:06:20.912Z,-7.50
2023-02-08T00:08:49.031Z,-7.40
2023-02-08T00:11:18.468Z,-7.40
2023-02-08T00:13:46.712Z,-7.60
2023-02-08T00:16:15.894Z,-7.60
2023-02-08T00:18:43.966Z,-7.50
2023-02-08T00:21:13.592Z,-7.50
2023-02-08T00:23:42.146Z,-7.40
2023-02-08T00:26:11.055Z,-7.30
2023-02-08T00:28:41.021Z,-7.20
2023-02-08T00:31:09.277Z,-7.10
2023-02-08T00:33:37.436Z,-7.10
2023-02-08T00:36:07.615Z,-6.90
2023-02-08T00:38:36.570Z,-6.80
2023-02-08T00:41:05.061Z,-6.80
2023-02-08T00:43:33.335Z,-6.80
2023-02-08T00:46:02.921Z,-7.60
2023-02-08T00:48:31.668Z,-8.00
2023-02-08T00:51:02.120Z,-8.20
2023-02-08T00:53:30.538Z,-8.20
2023-02-08T00:55:58.872Z,-8.20
2023-02-08T00:58:27.000Z,-8.10
2023-02-08T01:00:55.592Z,-8.00
2023-02-08T01:03:25.519Z,-7.70
2023-02-08T01:05:53.769Z,-7.60
2023-02-08T01:08:22.211Z,-7.70
2023-02-08T01:10:50.344Z,-7.60
2023-02-08T01:13:18.404Z,-7.50
2023-02-08T01:15:46.604Z,-7.60
2023-02-08T01:18:14.692Z,-7.60
2023-02-08T01:20:44.418Z,-7.80
2023-02-08T01:23:12.500Z,-7.80
2023-02-08T01:25:41.810Z,-7.60
2023-02-08T01:28:10.019Z,-7.60
2023-02-08T01:30:39.363Z,-7.80
2023-02-08T01:33:09.941Z,-7.80
2023-02-08T01:35:38.065Z,-7.60
2023-02-08T01:38:07.553Z,-7.40
2023-02-08T01:40:35.833Z,-7.80
2023-02-08T01:43:03.963Z,-7.70
2023-02-08T01:45:33.404Z,-7.50
2023-02-08T01:48:08.986Z,-7.40
2023-02-08T01:50:46.236Z,-8.10
2023-02-08T01:53:15.918Z,-8.00
2023-02-08T01:55:48.863Z,-8.30
2023-02-08T01:58:19.190Z,-8.60
2023-02-08T02:00:48.064Z,-8.20
2023-02-08T02:03:16.747Z,-7.40
2023-02-08T02:05:48.410Z,-7.30
2023-02-08T02:08:18.037Z,-6.90
2023-02-08T02:10:48.333Z,-6.10
2023-02-08T02:13:19.419Z,-6.30
2023-02-08T02:15:50.536Z,-6.30
2023-02-08T02:18:24.297Z,-6.30
2023-02-08T02:21:22.457Z,-6.50
2023-02-08T02:24:17.530Z,-6.50
2023-02-08T02:27:10.641Z,-6.50
2023-02-08T02:30:22.840Z,-6.10
2023-02-08T02:33:13.219Z,-6.40
2023-02-08T02:35:46.595Z,-6.40
2023-02-08T02:38:23.199Z,-6.40
2023-02-08T02:41:01.643Z,-6.40
2023-02-08T02:43:46.191Z,-6.50
2023-02-08T02:46:24.273Z,-6.60
2023-02-08T02:49:01.103Z,-6.60
2023-02-08T02:51:34.710Z,-6.30
2023-02-08T02:54:08.613Z,-6.50
2023-02-08T02:56:40.278Z,-5.90
2023-02-08T02:59:11.710Z,-5.80
2023-02-08T03:01:40.742Z,-5.70
2023-02-08T03:04:18.047Z,-6.10
2023-02-08T03:07:06.747Z,-6.20
2023-02-08T03:09:55.259Z,-6.10
2023-02-08T03:12:35.359Z,-6.00
2023-02-08T03:15:11.071Z,-6.20
2023-02-08T03:17:55.143Z,-6.30
2023-02-08T03:20:27.603Z,-6.40
2023-02-08T03:23:03.704Z,-6.30
2023-02-08T03:25:41.425Z,-6.30
2023-02-08T03:28:19.444Z,-5.90
2023-02-08T03:30:54.891Z,-6.20
2023-02-08T03:33:27.604Z,-5.50
2023-02-08T03:36:02.315Z,-5.10
2023-02-08T03:38:34.378Z,-5.90
2023-02-08T03:41:07.370Z,-5.90
2023-02-08T03:43:39.163Z,-6.00
2023-02-08T03:46:12.403Z,-5.90
2023-02-08T03:48:44.932Z,-6.20
2023-02-08T03:51:16.681Z,-6.10
2023-02-08T03:53:47.028Z,-6.20
2023-02-08T03:56:20.157Z,-5.40
2023-02-08T03:58:53.088Z,-5.40
2023-02-08T04:01:26.056Z,-5.40
2023-02-08T04:03:56.425Z,-5.30
2023-02-08T04:06:25.937Z,-5.60
2023-02-08T04:08:53.960Z,-5.80
2023-02-08T04:11:22.098Z,-5.80
2023-02-08T04:13:50.135Z,-5.60
2023-02-08T04:16:18.163Z,-5.40
2023-02-08T04:18:46.242Z,-5.50
2023-02-08T04:21:14.278Z,-5.00
2023-02-08T04:23:43.684Z,-5.00
2023-02-08T04:26:11.735Z,-5.50
2023-02-08T04:28:39.758Z,-5.60
2023-02-08T04:31:08.134Z,-5.20
2023-02-08T04:33:36.176Z,-4.80
2023-02-08T04:36:04.365Z,-5.30
2023-02-08T04:38:32.547Z,-5.60
2023-02-08T04:41:01.954Z,-5.70
2023-02-08T04:43:30.128Z,-5.50
2023-02-08T04:45:58.200Z,-5.60
2023-02-08T04:48:26.334Z,-5.60
2023-02-08T04:50:57.431Z,-5.70
2023-02-08T04:53:26.028Z,-5.60
2023-02-08T04:55:54.246Z,-5.50
2023-02-08T04:58:23.996Z,-5.60
2023-02-08T05:00:52.059Z,-5.40
2023-02-08T05:03:20.927Z,-5.70
2023-02-08T05:05:56.929Z,-5.70
2023-02-08T05:08:25.089Z,-5.90
2023-02-08T05:10:53.585Z,-5.90
2023-02-08T05:13:23.027Z,-5.70
2023-02-08T05:15:51.313Z,-6.00
2023-02-08T05:18:19.502Z,-5.90
2023-02-08T05:20:54.727Z,-5.70
2023-02-08T05:23:22.807Z,-5.40
2023-02-08T05:25:50.961Z,-5.60
2023-02-08T05:28:19.382Z,-5.80
2023-02-08T05:30:49.279Z,-5.70
2023-02-08T05:33:17.491Z,-5.10
2023-02-08T05:35:46.278Z,-5.20
2023-02-08T05:38:14.385Z,-5.80
2023-02-08T05:40:42.716Z,-5.80
2023-02-08T05:43:11.072Z,-5.20
2023-02-08T05:45:39.111Z,-5.70
2023-02-08T05:48:08.620Z,-5.90
2023-02-08T05:50:36.745Z,-5.20
2023-02-08T05:53:05.029Z,-5.30
2023-02-08T05:55:34.026Z,-5.00
2023-02-08T05:58:02.300Z,-5.30
2023-02-08T06:00:30.516Z,-5.30
2023-02-08T06:02:59.429Z,-5.20
2023-02-08T06:05:28.966Z,-5.70
2023-02-08T06:07:57.188Z,-5.80
2023-02-08T06:10:25.553Z,-5.90
2023-02-08T06:12:53.577Z,-6.30
2023-02-08T06:15:21.652Z,-5.90
2023-02-08T06:17:49.739Z,-5.80
2023-02-08T06:20:18.353Z,-5.80
2023-02-08T06:22:47.903Z,-6.00
2023-02-08T06:25:15.971Z,-6.20
2023-02-08T06:27:44.244Z,-5.70
2023-02-08T06:30:13.190Z,-5.70
2023-02-08T06:32:41.295Z,-5.90
2023-02-08T06:35:09.827Z,-5.50
2023-02-08T06:37:38.069Z,-5.50
2023-02-08T06:40:09.020Z,-5.80
2023-02-08T06:42:37.107Z,-5.80
2023-02-08T06:45:08.251Z,-5.40
2023-02-08T06:47:36.452Z,-3.40
2023-02-08T06:50:04.674Z,-5.00
2023-02-08T06:52:32.880Z,-4.90
2023-02-08T06:55:00.912Z,-5.50
2023-02-08T06:57:30.404Z,-5.40
2023-02-08T06:59:58.587Z,-5.50
2023-02-08T07:02:27.770Z,-5.50
2023-02-08T07:04:55.970Z,-5.50
2023-02-08T07:07:24.018Z,-5.60
2023-02-08T07:09:52.115Z,-4.90
2023-02-08T07:12:20.157Z,-5.20
2023-02-08T07:14:49.575Z,-5.40
2023-02-08T07:17:17.675Z,-5.40
2023-02-08T07:19:45.911Z,-5.20
2023-02-08T07:22:13.973Z,-5.40
2023-02-08T07:24:43.627Z,-5.40
2023-02-08T07:27:13.282Z,-5.10
2023-02-08T07:29:41.691Z,-5.00
2023-02-08T07:32:11.606Z,-4.90
2023-02-08T07:34:40.768Z,-5.20
2023-02-08T07:37:09.221Z,-5.10
2023-02-08T07:39:37.273Z,-5.10
2023-02-08T07:42:06.625Z,-5.00
2023-02-08T07:44:41.426Z,-4.60
2023-02-08T07:47:11.105Z,-4.90
2023-02-08T07:49:39.265Z,-5.10
2023-02-08T07:52:07.606Z,-4.70
2023-02-08T07:54:36.035Z,-4.80
2023-02-08T07:57:04.101Z,-4.30
2023-02-08T07:59:32.247Z,-4.60
2023-02-08T08:02:00.413Z,-4.60
2023-02-08T08:04:29.952Z,-4.20
2023-02-08T08:06:58.057Z,-4.40
2023-02-08T08:09:26.566Z,-4.30
2023-02-08T08:11:54.631Z,-4.50
2023-02-08T08:14:22.835Z,-4.20
2023-02-08T08:16:50.933Z,-4.00
2023-02-08T08:19:18.997Z,-4.20
2023-02-08T08:21:48.405Z,-4.10
2023-02-08T08:24:16.867Z,-3.90
2023-02-08T08:26:45.035Z,-3.70
2023-02-08T08:29:13.365Z,-3.80
2023-02-08T08:31:42.695Z,-3.80
2023-02-08T08:34:11.023Z,-3.60
2023-02-08T08:36:39.118Z,-3.70
2023-02-08T08:39:08.724Z,-3.70
2023-02-08T08:41:37.264Z,-3.60
2023-02-08T08:44:05.765Z,-3.50
2023-02-08T08:46:33.893Z,-3.60
2023-02-08T08:49:02.270Z,-3.30
2023-02-08T08:51:32.536Z,-3.50
2023-02-08T08:54:00.508Z,-3.40
2023-02-08T08:56:30.147Z,-3.40
2023-02-08T08:58:58.321Z,-3.30
2023-02-08T09:01:27.090Z,-3.10
2023-02-08T09:03:55.234Z,-3.00
2023-02-08T09:06:23.395Z,-3.00
2023-02-08T09:08:51.914Z,-3.00
2023-02-08T09:11:20.145Z,-2.90
2023-02-08T09:13:52.785Z,-2.90
2023-02-08T09:16:21.251Z,-2.70
2023-02-08T09:18:49.387Z,-2.80
2023-02-08T09:21:19.407Z,-2.80
2023-02-08T09:23:48.477Z,-2.50
2023-02-08T09:26:19.063Z,-2.50
2023-02-08T09:28:49.048Z,-2.40
2023-02-08T09:31:21.994Z,-2.40
2023-02-08T09:33:50.850Z,-2.30
2023-02-08T09:36:19.236Z,-2.30
2023-02-08T09:38:47.829Z,-2.30
2023-02-08T09:41:29.109Z,-2.20
2023-02-08T09:44:11.290Z,-2.10
2023-02-08T09:46:42.665Z,-2.20
2023-02-08T09:49:17.462Z,-2.10
2023-02-08T09:51:51.320Z,-2.10
2023-02-08T09:54:24.272Z,-1.90
2023-02-08T09:56:53.982Z,-1.90
2023-02-08T09:59:26.998Z,-1.90
2023-02-08T10:02:00.491Z,-1.90
2023-02-08T10:04:38.472Z,-1.90
2023-02-08T10:07:06.543Z,-1.70
2023-02-08T10:09:34.721Z,-1.80
2023-02-08T10:12:15.211Z,-1.70
2023-02-08T10:15:03.309Z,-1.60
2023-02-08T10:17:50.415Z,-1.50
2023-02-08T10:20:30.508Z,-1.40
2023-02-08T10:23:08.494Z,-1.40
2023-02-08T10:25:51.671Z,-1.40
2023-02-08T10:28:35.905Z,-1.20
2023-02-08T10:31:16.855Z,-1.10
2023-02-08T10:33:50.741Z,-1.20
2023-02-08T10:36:21.961Z,-1.00
2023-02-08T10:38:52.960Z,-0.90
2023-02-08T10:41:25.926Z,-0.90
2023-02-08T10:44:03.418Z,-0.80
2023-02-08T10:46:39.035Z,-0.80
2023-02-08T10:49:13.595Z,-0.70
2023-02-08T10:51:42.021Z,-0.70
2023-02-08T10:54:13.812Z,-0.60
2023-02-08T10:56:46.581Z,-0.60
2023-02-08T10:59:18.454Z,-0.50
2023-02-08T11:01:49.416Z,-0.50
2023-02-08T11:04:18.750Z,-0.40
2023-02-08T11:06:49.272Z,-0.50
2023-02-08T11:09:26.407Z,-0.40
2023-02-08T11:11:55.257Z,-0.40
2023-02-08T11:14:37.901Z,-0.50
2023-02-08T11:17:27.238Z,-0.40
2023-02-08T11:19:55.762Z,-0.40
2023-02-08T11:22:27.245Z,-0.40
2023-02-08T11:24:57.903Z,-0.20
2023-02-08T11:27:34.669Z,-0.20
2023-02-08T11:30:23.275Z,-0.10
2023-02-08T11:33:22.760Z,-0.10
2023-02-08T11:36:14.259Z,0.10
2023-02-08T11:38:44.131Z,0.00
2023-02-08T11:41:18.993Z,0.10
2023-02-08T11:44:02.505Z,0.10
2023-02-08T11:46:33.696Z,0.00
2023-02-08T11:49:06.943Z,0.00
2023-02-08T11:51:38.351Z,0.20
2023-02-08T11:54:08.036Z,0.40
2023-02-08T11:56:36.831Z,0.60
2023-02-08T11:59:18.050Z,0.60
2023-02-08T12:01:47.039Z,0.40
2023-02-08T12:04:18.666Z,0.40
2023-02-08T12:07:20.416Z,0.60
2023-02-08T12:10:08.421Z,0.60
2023-02-08T12:12:50.118Z,0.50
2023-02-08T12:15:28.727Z,0.50
2023-02-08T12:18:16.545Z,0.50
2023-02-08T12:20:48.044Z,0.40
2023-02-08T12:23:32.472Z,0.50
2023-02-08T12:26:12.522Z,1.00
2023-02-08T12:28:54.688Z,1.50
2023-02-08T12:31:31.419Z,1.30
2023-02-08T12:34:07.548Z,1.10
2023-02-08T12:37:24.844Z,1.50
2023-02-08T12:40:16.817Z,2.20
2023-02-08T12:42:57.483Z,1.60
2023-02-08T12:45:48.917Z,1.20
2023-02-08T12:48:41.316Z,0.90
2023-02-08T12:51:18.370Z,1.40
2023-02-08T12:53:52.949Z,1.30
2023-02-08T12:56:26.288Z,1.40
2023-02-08T12:59:08.249Z,1.60
2023-02-08T13:01:46.001Z,1.40
2023-02-08T13:04:18.094Z,1.60
2023-02-08T13:06:50.464Z,2.20
2023-02-08T13:09:31.414Z,2.10
2023-02-08T13:12:05.605Z,1.70
2023-02-08T13:14:37.166Z,2.20
2023-02-08T13:17:14.554Z,2.50
2023-02-08T13:20:00.210Z,2.70
2023-02-08T13:22:34.133Z,3.00
2023-02-08T13:25:07.827Z,2.90
2023-02-08T13:27:36.786Z,3.40
2023-02-08T13:30:06.450Z,2.60
2023-02-08T13:32:43.816Z,2.80
2023-02-08T13:35:17.354Z,2.90
2023-02-08T13:37:58.232Z,2.40
2023-02-08T13:40:31.143Z,2.00
2023-02-08T13:43:02.364Z,1.80
2023-02-08T13:45:34.450Z,2.20
2023-02-08T13:48:07.264Z,2.50
2023-02-08T13:50:42.168Z,2.00
2023-02-08T13:53:11.156Z,2.20
2023-02-08T13:56:09.651Z,2.60
2023-02-08T13:58:58.613Z,3.00
2023-02-08T14:01:28.804Z,3.00
2023-02-08T14:04:28.764Z,3.20
2023-02-08T14:07:02.052Z,2.60
2023-02-08T14:09:42.783Z,2.60
2023-02-08T14:12:20.798Z,2.50
2023-02-08T14:15:21.651Z,3.10
2023-02-08T14:17:51.576Z,3.40
2023-02-08T14:20:23.215Z,3.60
2023-02-08T14:22:54.437Z,3.40
2023-02-08T14:25:25.810Z,3.70
2023-02-08T14:27:57.320Z,3.70
2023-02-08T14:30:28.750Z,3.10
2023-02-08T14:33:16.349Z,2.60
2023-02-08T14:35:55.241Z,2.80
2023-02-08T14:38:57.586Z,2.80
2023-02-08T14:41:50.166Z,3.10
2023-02-08T14:44:56.729Z,2.50
2023-02-08T14:48:05.342Z,2.60
2023-02-08T14:50:51.560Z,3.00
2023-02-08T14:53:30.401Z,3.20
2023-02-08T14:56:03.984Z,3.50
2023-02-08T14:58:35.624Z,3.80
2023-02-08T15:01:13.263Z,3.80
2023-02-08T15:03:43.196Z,3.70
2023-02-08T15:07:05.648Z,3.20
2023-02-08T15:09:38.447Z,3.30
2023-02-08T15:12:14.904Z,3.40
2023-02-08T15:14:44.377Z,3.20
2023-02-08T15:17:35.988Z,3.30
2023-02-08T15:20:07.329Z,3.10
2023-02-08T15:22:37.409Z,3.90
2023-02-08T15:25:22.705Z,3.80
2023-02-08T15:27:52.746Z,4.30
2023-02-08T15:30:35.141Z,3.20
2023-02-08T15:33:10.322Z,3.20
2023-02-08T15:35:38.608Z,3.00
2023-02-08T15:38:15.307Z,3.30
2023-02-08T15:40:43.670Z,3.10
2023-02-08T15:43:14.323Z,2.90
2023-02-08T15:45:42.507Z,2.70
2023-02-08T15:48:13.577Z,3.10
2023-02-08T15:50:41.999Z,3.00
2023-02-08T15:53:16.687Z,2.50
2023-02-08T15:55:50.200Z,2.80
2023-02-08T15:58:28.629Z,2.10
2023-02-08T16:00:59.169Z,2.40
2023-02-08T16:03:30.544Z,2.40
2023-02-08T16:06:01.606Z,1.80
2023-02-08T16:08:32.529Z,1.30
2023-02-08T16:11:03.048Z,1.10
2023-02-08T16:13:34.906Z,0.70
2023-02-08T16:16:17.636Z,0.80
2023-02-08T16:18:50.235Z,0.90
2023-02-08T16:21:29.045Z,0.80
2023-02-08T16:23:59.020Z,0.80
2023-02-08T16:28:59.718Z,-0.10
2023-02-08T16:31:30.723Z,-0.10
2023-02-08T16:34:03.894Z,-0.30
2023-02-08T16:36:37.041Z,-0.20
2023-02-08T16:39:46.932Z,-0.20
2023-02-08T16:42:29.325Z,-0.20
2023-02-08T16:45:17.092Z,-0.50
2023-02-08T16:47:47.882Z,-0.40
2023-02-08T16:50:19.515Z,-0.30
2023-02-08T16:52:50.667Z,-0.40
2023-02-08T16:55:21.971Z,-0.80
2023-02-08T16:57:51.891Z,-0.70
2023-02-08T17:00:26.061Z,-0.70
2023-02-08T17:02:54.817Z,-0.70
2023-02-08T17:05:27.424Z,-1.40
2023-02-08T17:07:55.662Z,-0.70
2023-02-08T17:10:28.755Z,-0.70
2023-02-08T17:13:13.504Z,-1.10
2023-02-08T17:15:47.147Z,-0.50
2023-02-08T17:18:15.427Z,-0.50
2023-02-08T17:20:45.274Z,-0.60
2023-02-08T17:23:15.456Z,-1.30
2023-02-08T17:25:44.374Z,-1.20
2023-02-08T17:28:17.514Z,-1.00
2023-02-08T17:30:47.213Z,-1.60
2023-02-08T17:33:18.647Z,-1.30
2023-02-08T17:35:50.027Z,-1.60
2023-02-08T17:38:19.245Z,-1.10
2023-02-08T17:40:47.796Z,-0.90
2023-02-08T17:43:16.365Z,-0.80
2023-02-08T17:45:45.351Z,-0.70
2023-02-08T17:48:15.362Z,-1.00
2023-02-08T17:50:47.802Z,-1.50
2023-02-08T17:53:17.697Z,-1.50
2023-02-08T17:55:46.703Z,-1.80
2023-02-08T17:58:15.338Z,-1.80
2023-02-08T18:00:43.643Z,-1.40
2023-02-08T18:03:12.334Z,-1.50
2023-02-08T18:05:40.526Z,-1.50
2023-02-08T18:08:08.700Z,-1.90
2023-02-08T18:10:38.221Z,-1.80
2023-02-08T18:13:06.369Z,-2.10
2023-02-08T18:15:35.720Z,-2.20
2023-02-08T18:18:04.041Z,-2.50
2023-02-08T18:20:32.201Z,-2.70
2023-02-08T18:23:00.404Z,-2.60
2023-02-08T18:25:28.867Z,-2.80
2023-02-08T18:27:58.933Z,-2.70
2023-02-08T18:30:28.015Z,-2.50
2023-02-08T18:32:56.162Z,-2.80
2023-02-08T18:35:24.229Z,-3.00
2023-02-08T18:37:53.512Z,-3.10
2023-02-08T18:40:21.813Z,-3.10
2023-02-08T18:42:49.852Z,-3.20
2023-02-08T18:45:19.446Z,-3.00
2023-02-08T18:47:47.977Z,-2.90
2023-02-08T18:50:16.391Z,-3.10
2023-02-08T18:52:44.491Z,-2.90
2023-02-08T18:55:13.016Z,-2.80
2023-02-08T18:57:41.291Z,-2.80
2023-02-08T19:00:10.932Z,-2.80
2023-02-08T19:02:40.686Z,-3.10
2023-02-08T19:05:08.967Z,-3.20
2023-02-08T19:07:38.747Z,-2.60
2023-02-08T19:10:07.638Z,-3.00
2023-02-08T19:12:38.322Z,-2.70
2023-02-08T19:15:07.110Z,-2.80
2023-02-08T19:17:35.527Z,-3.00
2023-02-08T19:20:05.736Z,-3.20
2023-02-08T19:22:33.980Z,-2.70
2023-02-08T19:25:02.244Z,-2.50
2023-02-08T19:27:30.715Z,-3.00
2023-02-08T19:29:58.803Z,-3.20
2023-02-08T19:32:27.019Z,-3.20
2023-02-08T19:34:55.144Z,-3.00
2023-02-08T19:37:24.515Z,-3.10
2023-02-08T19:39:52.772Z,-3.50
2023-02-08T19:42:20.852Z,-3.70
2023-02-08T19:44:49.055Z,-3.90
2023-02-08T19:47:17.126Z,-3.90
2023-02-08T19:49:45.237Z,-4.10
2023-02-08T19:52:16.218Z,-4.10
2023-02-08T19:54:45.635Z,-4.10
2023-02-08T19:57:15.942Z,-4.30
2023-02-08T19:59:44.613Z,-4.40
2023-02-08T20:02:13.207Z,-4.30
2023-02-08T20:04:41.806Z,-4.40
2023-02-08T20:07:10.327Z,-4.50
2023-02-08T20:09:38.573Z,-4.50
2023-02-08T20:12:08.433Z,-4.60
2023-02-08T20:14:36.620Z,-4.70
2023-02-08T20:17:04.957Z,-4.80
2023-02-08T20:19:36.137Z,-4.80
2023-02-08T20:22:04.375Z,-4.80
2023-02-08T20:24:32.544Z,-4.70
2023-02-08T20:27:00.726Z,-4.80
2023-02-08T20:29:30.724Z,-4.70
2023-02-08T20:31:59.554Z,-4.80
2023-02-08T20:34:27.682Z,-4.80
2023-02-08T20:37:06.803Z,-5.00
2023-02-08T20:39:36.694Z,-5.00
2023-02-08T20:42:05.301Z,-5.10
2023-02-08T20:44:35.480Z,-5.30
2023-02-08T20:47:04.107Z,-5.40
2023-02-08T20:49:32.620Z,-5.30
2023-02-08T20:52:01.177Z,-5.10
2023-02-08T20:54:29.545Z,-4.90
2023-02-08T20:56:57.914Z,-5.00
2023-02-08T20:59:30.273Z,-5.10
2023-02-08T21:01:59.989Z,-5.40
2023-02-08T21:04:28.188Z,-5.40
2023-02-08T21:06:56.369Z,-5.70
2023-02-08T21:09:24.798Z,-5.70
2023-02-08T21:11:53.313Z,-5.60
2023-02-08T21:14:23.497Z,-5.60
2023-02-08T21:16:53.780Z,-5.70
2023-02-08T21:19:24.183Z,-5.80
2023-02-08T21:21:54.050Z,-5.80
2023-02-08T21:24:24.007Z,-6.00
2023-02-08T21:26:52.168Z,-6.00
2023-02-08T21:29:20.608Z,-6.10
2023-02-08T21:31:51.714Z,-6.00
2023-02-08T21:34:20.670Z,-5.80
2023-02-08T21:36:50.640Z,-5.80
2023-02-08T21:39:18.741Z,-5.80
2023-02-08T21:41:48.218Z,-5.90
2023-02-08T21:44:16.644Z,-5.70
2023-02-08T21:46:44.779Z,-5.90
2023-02-08T21:49:30.641Z,-6.00
2023-02-08T21:52:17.593Z,-6.40
2023-02-08T21:54:46.084Z,-6.60
2023-02-08T21:57:19.628Z,-6.60
2023-02-08T21:59:48.639Z,-6.50
2023-02-08T22:02:23.351Z,-6.40
2023-02-08T22:04:52.584Z,-6.60
2023-02-08T22:07:22.243Z,-6.90
2023-02-08T22:09:50.437Z,-6.80
2023-02-08T22:12:21.685Z,-7.00
2023-02-08T22:14:50.976Z,-7.10
2023-02-08T22:17:19.678Z,-6.60
2023-02-08T22:19:47.918Z,-6.60
2023-02-08T22:22:16.076Z,-6.50
2023-02-08T22:24:45.555Z,-6.40
2023-02-08T22:27:13.796Z,-6.40
2023-02-08T22:29:41.890Z,-6.30
2023-02-08T22:32:11.068Z,-6.40
2023-02-08T22:34:39.869Z,-6.50
2023-02-08T22:37:08.301Z,-6.60
2023-02-08T22:39:36.598Z,-6.60
2023-02-08T22:42:11.936Z,-6.40
2023-02-08T22:44:42.126Z,-6.40
2023-02-08T22:47:12.007Z,-6.40
2023-02-08T22:49:40.449Z,-6.30
2023-02-08T22:52:09.547Z,-6.20
2023-02-08T22:54:37.822Z,-6.30
2023-02-08T22:57:09.579Z,-6.20
2023-02-08T22:59:38.718Z,-6.20
2023-02-08T23:02:07.312Z,-6.20
2023-02-08T23:04:36.943Z,-6.40
2023-02-08T23:07:05.396Z,-6.60
2023-02-08T23:09:33.409Z,-6.70
2023-02-08T23:12:01.567Z,-6.80
2023-02-08T23:14:31.057Z,-6.80
2023-02-08T23:16:59.129Z,-7.00
2023-02-08T23:19:27.505Z,-6.80
2023-02-08T23:21:59.180Z,-7.00
2023-02-08T23:24:27.701Z,-6.80
2023-02-08T23:26:55.778Z,-7.30
2023-02-08T23:29:23.921Z,-7.40
2023-02-08T23:31:53.612Z,-7.20
2023-02-08T23:34:21.846Z,-7.20
2023-02-08T23:36:50.031Z,-7.20
2023-02-08T23:39:18.168Z,-7.30
2023-02-08T23:41:46.360Z,-7.20
2023-02-08T23:44:14.446Z,-7.10
2023-02-08T23:46:42.571Z,-7.10
2023-02-08T23:49:12.138Z,-7.10
2023-02-08T23:51:40.228Z,-7.00
2023-02-08T23:54:08.692Z,-6.90
2023-02-08T23:56:36.858Z,-6.80
2023-02-08T23:59:08.110Z,-6.70
